createdAt,value
2022-09-13T00:00:11.891Z,14.50
2022-09-13T00:00:37.006Z,14.50
2022-09-13T00:01:01.678Z,14.50
2022-09-13T00:01:24.553Z,14.50
2022-09-13T00:01:48.043Z,14.50
2022-09-13T00:02:10.943Z,14.50
2022-09-13T00:02:33.689Z,14.50
2022-09-13T00:02:56.456Z,14.50
2022-09-13T00:03:23.958Z,14.40
2022-09-13T00:03:46.725Z,14.40
2022-09-13T00:04:09.420Z,14.40
2022-09-13T00:04:32.229Z,14.40
2022-09-13T00:04:57.127Z,14.50
2022-09-13T00:05:19.940Z,14.50
2022-09-13T00:05:42.568Z,14.50
2022-09-13T00:06:09.581Z,14.50
2022-09-13T00:06:32.457Z,14.50
2022-09-13T00:06:55.180Z,14.50
2022-09-13T00:07:18.265Z,14.40
2022-09-13T00:07:43.357Z,14.40
2022-09-13T00:08:06.417Z,14.50
2022-09-13T00:08:29.117Z,14.50
2022-09-13T00:08:53.386Z,14.50
2022-09-13T00:09:16.037Z,14.40
2022-09-13T00:09:38.792Z,14.40
2022-09-13T00:10:01.448Z,14.50
2022-09-13T00:10:24.192Z,14.40
2022-09-13T00:10:46.892Z,14.50
2022-09-13T00:11:15.182Z,14.40
2022-09-13T00:11:37.917Z,14.40
2022-09-13T00:12:00.632Z,14.50
2022-09-13T00:12:23.253Z,14.40
2022-09-13T00:12:45.907Z,14.40
2022-09-13T00:13:09.062Z,14.50
2022-09-13T00:13:31.752Z,14.40
2022-09-13T00:13:54.708Z,14.40
2022-09-13T00:14:17.404Z,14.40
2022-09-13T00:14:40.208Z,14.50
2022-09-13T00:15:02.867Z,14.40
2022-09-13T00:15:25.522Z,14.40
2022-09-13T00:15:49.218Z,14.40
2022-09-13T00:16:12.575Z,14.50
2022-09-13T00:16:35.511Z,14.40
2022-09-13T00:16:58.728Z,14.40
2022-09-13T00:17:22.068Z,14.40
2022-09-13T00:17:44.747Z,14.40
2022-09-13T00:18:07.547Z,14.40
2022-09-13T00:18:31.761Z,14.40
2022-09-13T00:18:54.565Z,14.40
2022-09-13T00:19:17.255Z,14.40
2022-09-13T00:19:39.989Z,14.40
2022-09-13T00:20:04.109Z,14.40
2022-09-13T00:20:27.369Z,14.40
2022-09-13T00:20:50.071Z,14.40
2022-09-13T00:21:17.493Z,14.40
2022-09-13T00:21:40.189Z,14.40
2022-09-13T00:22:02.959Z,14.40
2022-09-13T00:22:26.598Z,14.40
2022-09-13T00:22:49.244Z,14.40
2022-09-13T00:23:12.058Z,14.40
2022-09-13T00:23:34.929Z,14.40
2022-09-13T00:24:00.080Z,14.40
2022-09-13T00:24:22.814Z,14.40
2022-09-13T00:24:45.521Z,14.40
2022-09-13T00:25:09.474Z,14.40
2022-09-13T00:25:32.140Z,14.40
2022-09-13T00:26:02.550Z,14.40
2022-09-13T00:26:26.002Z,14.40
2022-09-13T00:26:49.145Z,14.40
2022-09-13T00:27:13.113Z,14.30
2022-09-13T00:27:36.075Z,14.40
2022-09-13T00:27:58.800Z,14.30
2022-09-13T00:28:21.536Z,14.40
2022-09-13T00:28:48.037Z,14.30
2022-09-13T00:29:10.726Z,14.30
2022-09-13T00:29:33.535Z,14.30
2022-09-13T00:29:56.257Z,14.30
2022-09-13T00:30:19.045Z,14.30
2022-09-13T00:30:41.774Z,14.30
2022-09-13T00:31:06.019Z,14.30
2022-09-13T00:31:28.905Z,14.30
2022-09-13T00:31:52.527Z,14.30
2022-09-13T00:32:15.264Z,14.30
2022-09-13T00:32:37.965Z,14.20
2022-09-13T00:33:04.650Z,14.20
2022-09-13T00:33:27.565Z,14.20
2022-09-13T00:33:51.682Z,14.20
2022-09-13T00:34:14.373Z,14.20
2022-09-13T00:34:37.114Z,14.20
2022-09-13T00:34:59.840Z,14.10
2022-09-13T00:35:25.806Z,14.20
2022-09-13T00:35:50.936Z,14.20
2022-09-13T00:36:15.445Z,14.20
2022-09-13T00:36:38.236Z,14.20
2022-09-13T00:37:00.946Z,14.20
2022-09-13T00:37:23.590Z,14.20
2022-09-13T00:37:48.565Z,14.20
2022-09-13T00:38:11.255Z,14.10
2022-09-13T00:38:35.640Z,14.20
2022-09-13T00:38:59.686Z,14.20
2022-09-13T00:39:23.055Z,14.20
2022-09-13T00:39:49.208Z,14.10
2022-09-13T00:40:12.746Z,14.10
2022-09-13T00:40:38.312Z,14.10
2022-09-13T00:41:01.044Z,14.10
2022-09-13T00:41:23.775Z,14.10
2022-09-13T00:41:46.499Z,14.10
2022-09-13T00:42:10.709Z,14.10
2022-09-13T00:42:33.409Z,14.10
2022-09-13T00:42:56.169Z,14.00
2022-09-13T00:43:19.680Z,14.00
2022-09-13T00:43:44.997Z,14.00
2022-09-13T00:44:50.115Z,14.10
2022-09-13T00:45:16.639Z,14.00
2022-09-13T00:45:40.373Z,14.00
2022-09-13T00:46:03.173Z,14.00
2022-09-13T00:46:32.330Z,14.00
2022-09-13T00:46:55.254Z,14.00
2022-09-13T00:47:19.992Z,14.00
2022-09-13T00:47:45.460Z,14.00
2022-09-13T00:48:08.160Z,14.00
2022-09-13T00:48:33.124Z,14.00
2022-09-13T00:48:59.621Z,14.00
2022-09-13T00:49:33.120Z,14.00
2022-09-13T00:49:57.859Z,14.00
2022-09-13T00:50:23.330Z,14.00
2022-09-13T00:50:47.190Z,14.00
2022-09-13T00:51:09.934Z,14.00
2022-09-13T00:51:32.646Z,14.00
2022-09-13T00:51:56.845Z,14.00
2022-09-13T00:52:20.481Z,14.00
2022-09-13T00:52:46.707Z,14.00
2022-09-13T00:53:11.524Z,13.90
2022-09-13T00:53:35.545Z,14.00
2022-09-13T00:53:59.835Z,13.90
2022-09-13T00:54:24.153Z,13.90
2022-09-13T00:54:49.906Z,13.90
2022-09-13T00:55:14.204Z,13.90
2022-09-13T00:55:38.878Z,13.90
2022-09-13T00:56:02.609Z,13.90
2022-09-13T00:56:27.505Z,13.90
2022-09-13T00:56:51.514Z,13.90
2022-09-13T00:57:14.189Z,13.90
2022-09-13T00:57:36.863Z,13.90
2022-09-13T00:58:00.953Z,13.90
2022-09-13T00:58:25.907Z,13.90
2022-09-13T00:58:50.036Z,13.90
2022-09-13T00:59:14.293Z,13.90
2022-09-13T00:59:39.516Z,13.90
2022-09-13T01:00:10.212Z,13.90
2022-09-13T01:00:32.832Z,13.90
2022-09-13T01:00:56.064Z,13.90
2022-09-13T01:01:19.135Z,13.90
2022-09-13T01:01:46.004Z,13.90
2022-09-13T01:02:09.477Z,13.90
2022-09-13T01:02:32.208Z,13.90
2022-09-13T01:02:56.232Z,13.90
2022-09-13T01:03:19.938Z,13.80
2022-09-13T01:03:43.137Z,13.90
2022-09-13T01:04:11.962Z,13.80
2022-09-13T01:04:35.352Z,13.80
2022-09-13T01:05:00.476Z,13.80
2022-09-13T01:05:24.472Z,13.80
2022-09-13T01:05:50.207Z,13.80
2022-09-13T01:06:16.180Z,13.90
2022-09-13T01:06:39.040Z,13.90
2022-09-13T01:07:06.167Z,13.90
2022-09-13T01:07:28.892Z,13.80
2022-09-13T01:07:51.667Z,13.80
2022-09-13T01:08:20.554Z,13.80
2022-09-13T01:08:44.559Z,13.80
2022-09-13T01:09:07.243Z,13.80
2022-09-13T01:09:30.709Z,13.70
2022-09-13T01:09:53.425Z,13.70
2022-09-13T01:10:16.094Z,13.70
2022-09-13T01:10:41.753Z,13.70
2022-09-13T01:11:04.814Z,13.70
2022-09-13T01:11:30.134Z,13.70
2022-09-13T01:12:00.827Z,13.70
2022-09-13T01:12:32.181Z,13.70
2022-09-13T01:12:56.749Z,13.70
2022-09-13T01:13:21.452Z,13.60
2022-09-13T01:13:44.204Z,13.60
2022-09-13T01:14:08.184Z,13.60
2022-09-13T01:14:31.090Z,13.60
2022-09-13T01:14:56.400Z,13.60
2022-09-13T01:15:19.288Z,13.60
2022-09-13T01:15:42.255Z,13.60
2022-09-13T01:16:05.044Z,13.60
2022-09-13T01:16:27.780Z,13.60
2022-09-13T01:16:50.648Z,13.50
2022-09-13T01:17:14.401Z,13.60
2022-09-13T01:17:39.434Z,13.60
2022-09-13T01:18:02.256Z,13.50
2022-09-13T01:18:25.156Z,13.50
2022-09-13T01:18:47.841Z,13.50
2022-09-13T01:19:12.024Z,13.60
2022-09-13T01:19:35.215Z,13.50
2022-09-13T01:19:57.984Z,13.50
2022-09-13T01:20:24.004Z,13.50
2022-09-13T01:21:14.120Z,13.50
2022-09-13T01:22:03.085Z,13.50
2022-09-13T01:23:08.266Z,13.50
2022-09-13T01:23:57.935Z,13.50
2022-09-13T01:24:51.062Z,13.50
2022-09-13T01:26:11.796Z,13.40
2022-09-13T01:27:08.116Z,13.40
2022-09-13T01:27:41.765Z,13.40
2022-09-13T01:28:24.655Z,13.50
2022-09-13T01:29:09.429Z,13.40
2022-09-13T01:30:10.615Z,13.50
2022-09-13T01:30:34.785Z,13.50
2022-09-13T01:30:59.525Z,13.40
2022-09-13T01:31:25.661Z,13.50
2022-09-13T01:31:51.684Z,13.50
2022-09-13T01:32:17.273Z,13.50
2022-09-13T01:32:52.453Z,13.50
2022-09-13T01:33:39.818Z,13.50
2022-09-13T01:34:13.946Z,13.50
2022-09-13T01:34:43.527Z,13.50
2022-09-13T01:35:12.444Z,13.40
2022-09-13T01:35:46.618Z,13.40
2022-09-13T01:36:33.132Z,13.40
2022-09-13T01:37:06.244Z,13.40
2022-09-13T01:37:38.873Z,13.40
2022-09-13T01:38:05.442Z,13.40
2022-09-13T01:38:45.158Z,13.40
2022-09-13T01:39:10.147Z,13.40
2022-09-13T01:39:43.236Z,13.40
2022-09-13T01:40:11.286Z,13.40
2022-09-13T01:40:44.208Z,13.40
2022-09-13T01:41:11.688Z,13.50
2022-09-13T01:41:54.062Z,13.50
2022-09-13T01:42:24.274Z,13.50
2022-09-13T01:42:55.104Z,13.50
2022-09-13T01:43:26.096Z,13.40
2022-09-13T01:43:58.447Z,13.40
2022-09-13T01:44:29.118Z,13.40
2022-09-13T01:45:05.122Z,13.40
2022-09-13T01:45:35.691Z,13.40
2022-09-13T01:46:04.662Z,13.40
2022-09-13T01:46:29.752Z,13.40
2022-09-13T01:47:04.007Z,13.40
2022-09-13T01:47:27.839Z,13.40
2022-09-13T01:47:51.658Z,13.40
2022-09-13T01:48:17.385Z,13.40
2022-09-13T01:48:49.995Z,13.40
2022-09-13T01:49:15.294Z,13.40
2022-09-13T01:49:43.209Z,13.40
2022-09-13T01:50:13.767Z,13.40
2022-09-13T01:50:39.503Z,13.40
2022-09-13T01:51:05.663Z,13.40
2022-09-13T01:51:31.347Z,13.40
2022-09-13T01:51:56.828Z,13.40
2022-09-13T01:52:22.453Z,13.40
2022-09-13T01:52:49.325Z,13.30
2022-09-13T01:53:18.104Z,13.30
2022-09-13T01:53:46.290Z,13.40
2022-09-13T01:54:14.093Z,13.40
2022-09-13T01:54:39.113Z,13.30
2022-09-13T01:55:04.474Z,13.40
2022-09-13T01:55:32.710Z,13.40
2022-09-13T01:55:58.390Z,13.40
2022-09-13T01:56:23.561Z,13.40
2022-09-13T01:56:53.823Z,13.40
2022-09-13T01:57:17.761Z,13.40
2022-09-13T01:57:43.084Z,13.40
2022-09-13T01:58:10.275Z,13.40
2022-09-13T01:58:38.122Z,13.30
2022-09-13T01:59:03.771Z,13.30
2022-09-13T01:59:32.877Z,13.30
2022-09-13T01:59:57.474Z,13.40
2022-09-13T02:00:20.248Z,13.40
2022-09-13T02:00:45.966Z,13.40
2022-09-13T02:01:11.092Z,13.40
2022-09-13T02:01:36.390Z,13.40
2022-09-13T02:02:01.390Z,13.40
2022-09-13T02:02:27.122Z,13.40
2022-09-13T02:02:53.943Z,13.30
2022-09-13T02:03:18.563Z,13.30
2022-09-13T02:03:43.663Z,13.30
2022-09-13T02:04:08.493Z,13.30
2022-09-13T02:04:36.868Z,13.30
2022-09-13T02:05:02.393Z,13.30
2022-09-13T02:05:27.973Z,13.30
2022-09-13T02:05:53.933Z,13.30
2022-09-13T02:06:18.308Z,13.30
2022-09-13T02:06:41.942Z,13.30
2022-09-13T02:07:07.713Z,13.30
2022-09-13T02:07:33.678Z,13.30
2022-09-13T02:07:59.699Z,13.30
2022-09-13T02:08:25.316Z,13.30
2022-09-13T02:08:49.074Z,13.20
2022-09-13T02:09:13.909Z,13.30
2022-09-13T02:09:39.947Z,13.30
2022-09-13T02:10:05.858Z,13.30
2022-09-13T02:10:30.123Z,13.30
2022-09-13T02:10:55.987Z,13.30
2022-09-13T02:11:22.730Z,13.20
2022-09-13T02:11:46.878Z,13.30
2022-09-13T02:12:11.183Z,13.30
2022-09-13T02:12:34.749Z,13.20
2022-09-13T02:12:58.113Z,13.20
2022-09-13T02:13:25.903Z,13.20
2022-09-13T02:13:50.452Z,13.20
2022-09-13T02:14:14.027Z,13.20
2022-09-13T02:14:39.701Z,13.20
2022-09-13T02:15:04.831Z,13.20
2022-09-13T02:15:28.296Z,13.20
2022-09-13T02:15:54.083Z,13.20
2022-09-13T02:16:18.981Z,13.20
2022-09-13T02:16:43.071Z,13.20
2022-09-13T02:17:07.378Z,13.20
2022-09-13T02:17:32.678Z,13.20
2022-09-13T02:17:59.029Z,13.20
2022-09-13T02:18:24.334Z,13.20
2022-09-13T02:18:48.014Z,13.20
2022-09-13T02:19:13.697Z,13.20
2022-09-13T02:19:37.987Z,13.20
2022-09-13T02:20:02.965Z,13.20
2022-09-13T02:20:28.529Z,13.20
2022-09-13T02:20:51.914Z,13.20
2022-09-13T02:21:16.184Z,13.20
2022-09-13T02:21:39.977Z,13.20
2022-09-13T02:22:02.743Z,13.20
2022-09-13T02:22:29.924Z,13.20
2022-09-13T02:22:54.395Z,13.20
2022-09-13T02:23:19.390Z,13.20
2022-09-13T02:23:44.691Z,13.20
2022-09-13T02:24:08.167Z,13.20
2022-09-13T02:24:32.311Z,13.20
2022-09-13T02:24:57.908Z,13.20
2022-09-13T02:25:22.493Z,13.20
2022-09-13T02:25:45.713Z,13.20
2022-09-13T02:26:08.436Z,13.20
2022-09-13T02:26:33.431Z,13.20
2022-09-13T02:26:56.163Z,13.20
2022-09-13T02:27:21.468Z,13.20
2022-09-13T02:27:47.268Z,13.20
2022-09-13T02:28:11.733Z,13.20
2022-09-13T02:28:36.004Z,13.20
2022-09-13T02:28:59.441Z,13.10
2022-09-13T02:29:23.385Z,13.10
2022-09-13T02:29:47.433Z,13.10
2022-09-13T02:30:10.906Z,13.20
2022-09-13T02:30:34.427Z,13.10
2022-09-13T02:30:58.754Z,13.10
2022-09-13T02:31:24.317Z,13.10
2022-09-13T02:31:49.305Z,13.10
2022-09-13T02:32:14.415Z,13.10
2022-09-13T02:32:38.725Z,13.10
2022-09-13T02:33:03.732Z,13.10
2022-09-13T02:33:28.876Z,13.10
2022-09-13T02:33:53.455Z,13.10
2022-09-13T02:34:18.407Z,13.10
2022-09-13T02:34:42.358Z,13.10
2022-09-13T02:35:06.093Z,13.10
2022-09-13T02:35:31.922Z,13.10
2022-09-13T02:35:56.271Z,13.10
2022-09-13T02:36:22.084Z,13.10
2022-09-13T02:36:44.822Z,13.10
2022-09-13T02:37:08.168Z,13.10
2022-09-13T02:37:32.531Z,13.10
2022-09-13T02:37:58.505Z,13.10
2022-09-13T02:38:23.072Z,13.10
2022-09-13T02:38:48.220Z,13.10
2022-09-13T02:39:13.937Z,13.10
2022-09-13T02:39:37.972Z,13.10
2022-09-13T02:40:03.050Z,13.10
2022-09-13T02:40:27.680Z,13.10
2022-09-13T02:40:55.834Z,13.10
2022-09-13T02:41:20.365Z,13.10
2022-09-13T02:41:47.215Z,13.10
2022-09-13T02:42:13.260Z,13.10
2022-09-13T02:42:38.799Z,13.10
2022-09-13T02:43:02.780Z,13.10
2022-09-13T02:43:28.325Z,13.10
2022-09-13T02:43:53.124Z,13.10
2022-09-13T02:44:17.770Z,13.10
2022-09-13T02:44:42.816Z,13.10
2022-09-13T02:45:06.791Z,13.10
2022-09-13T02:45:32.082Z,13.10
2022-09-13T02:46:00.578Z,13.10
2022-09-13T02:46:30.084Z,13.00
2022-09-13T02:47:12.216Z,13.10
2022-09-13T02:47:42.406Z,13.00
2022-09-13T02:48:06.758Z,13.00
2022-09-13T02:48:35.495Z,13.00
2022-09-13T02:49:01.360Z,13.00
2022-09-13T02:49:26.518Z,12.90
2022-09-13T02:49:53.453Z,12.90
2022-09-13T02:50:26.093Z,12.90
2022-09-13T02:50:52.814Z,12.90
2022-09-13T02:51:18.269Z,12.80
2022-09-13T02:51:44.424Z,12.80
2022-09-13T02:52:10.157Z,12.80
2022-09-13T02:52:37.607Z,12.80
2022-09-13T02:53:04.325Z,12.80
2022-09-13T02:53:29.669Z,12.70
2022-09-13T02:53:56.207Z,12.70
2022-09-13T02:54:23.333Z,12.70
2022-09-13T02:54:51.183Z,12.70
2022-09-13T02:55:18.833Z,12.70
2022-09-13T02:55:44.728Z,12.70
2022-09-13T02:56:16.352Z,12.70
2022-09-13T02:56:44.352Z,12.70
2022-09-13T02:57:08.635Z,12.70
2022-09-13T02:57:33.259Z,12.60
2022-09-13T02:58:02.504Z,12.60
2022-09-13T02:58:27.847Z,12.60
2022-09-13T02:58:53.488Z,12.60
2022-09-13T02:59:17.328Z,12.60
2022-09-13T02:59:41.647Z,12.50
2022-09-13T03:00:04.778Z,12.60
2022-09-13T03:00:28.450Z,12.60
2022-09-13T03:00:51.088Z,12.60
2022-09-13T03:01:15.886Z,12.60
2022-09-13T03:01:38.723Z,12.60
2022-09-13T03:02:04.203Z,12.60
2022-09-13T03:02:29.203Z,12.50
2022-09-13T03:02:52.413Z,12.50
2022-09-13T03:03:16.177Z,12.50
2022-09-13T03:03:38.953Z,12.60
2022-09-13T03:04:02.964Z,12.50
2022-09-13T03:04:26.042Z,12.60
2022-09-13T03:04:50.739Z,12.60
2022-09-13T03:05:13.478Z,12.60
2022-09-13T03:05:38.747Z,12.60
2022-09-13T03:06:02.755Z,12.60
2022-09-13T03:06:25.507Z,12.60
2022-09-13T03:06:49.704Z,12.70
2022-09-13T03:07:12.689Z,12.70
2022-09-13T03:07:35.346Z,12.60
2022-09-13T03:07:58.582Z,12.70
2022-09-13T03:08:21.289Z,12.70
2022-09-13T03:08:43.959Z,12.70
2022-09-13T03:09:07.107Z,12.60
2022-09-13T03:09:29.816Z,12.70
2022-09-13T03:09:53.934Z,12.70
2022-09-13T03:10:16.648Z,12.70
2022-09-13T03:10:49.209Z,12.70
2022-09-13T03:11:13.963Z,12.70
2022-09-13T03:11:44.747Z,12.70
2022-09-13T03:12:19.684Z,12.70
2022-09-13T03:12:57.605Z,12.70
2022-09-13T03:13:43.544Z,12.70
2022-09-13T03:14:17.684Z,12.80
2022-09-13T03:14:46.960Z,12.80
2022-09-13T03:15:14.600Z,12.80
2022-09-13T03:15:47.965Z,12.70
2022-09-13T03:16:20.149Z,12.80
2022-09-13T03:16:48.721Z,12.80
2022-09-13T03:17:17.221Z,12.80
2022-09-13T03:17:46.885Z,12.80
2022-09-13T03:18:17.631Z,12.80
2022-09-13T03:18:48.932Z,12.70
2022-09-13T03:19:35.776Z,12.80
2022-09-13T03:20:09.496Z,12.80
2022-09-13T03:20:37.586Z,12.70
2022-09-13T03:21:07.719Z,12.70
2022-09-13T03:21:40.825Z,12.70
2022-09-13T03:22:12.921Z,12.70
2022-09-13T03:22:53.494Z,12.60
2022-09-13T03:23:37.800Z,12.60
2022-09-13T03:24:08.352Z,12.60
2022-09-13T03:24:36.200Z,12.60
2022-09-13T03:25:03.105Z,12.60
2022-09-13T03:25:31.645Z,12.60
2022-09-13T03:26:18.621Z,12.60
2022-09-13T03:26:45.704Z,12.60
2022-09-13T03:27:15.510Z,12.60
2022-09-13T03:27:40.845Z,12.60
2022-09-13T03:28:08.970Z,12.60
2022-09-13T03:28:36.325Z,12.50
2022-09-13T03:29:09.825Z,12.50
2022-09-13T03:29:34.934Z,12.50
2022-09-13T03:30:02.705Z,12.40
2022-09-13T03:30:25.445Z,12.50
2022-09-13T03:30:50.900Z,12.40
2022-09-13T03:31:20.815Z,12.40
2022-09-13T03:31:48.562Z,12.40
2022-09-13T03:32:18.983Z,12.40
2022-09-13T03:32:45.914Z,12.40
2022-09-13T03:33:12.445Z,12.40
2022-09-13T03:33:39.860Z,12.30
2022-09-13T03:34:07.393Z,12.30
2022-09-13T03:34:33.816Z,12.30
2022-09-13T03:35:00.024Z,12.30
2022-09-13T03:35:26.575Z,12.30
2022-09-13T03:35:52.557Z,12.30
2022-09-13T03:36:16.665Z,12.30
2022-09-13T03:36:43.055Z,12.40
2022-09-13T03:37:11.132Z,12.30
2022-09-13T03:37:35.315Z,12.40
2022-09-13T03:38:01.927Z,12.40
2022-09-13T03:38:27.524Z,12.40
2022-09-13T03:38:55.844Z,12.40
2022-09-13T03:39:20.984Z,12.40
2022-09-13T03:39:46.588Z,12.40
2022-09-13T03:40:10.800Z,12.40
2022-09-13T03:40:38.820Z,12.40
2022-09-13T03:41:04.969Z,12.40
2022-09-13T03:41:30.543Z,12.40
2022-09-13T03:41:56.032Z,12.40
2022-09-13T03:42:22.084Z,12.40
2022-09-13T03:42:46.980Z,12.40
2022-09-13T03:43:13.012Z,12.40
2022-09-13T03:43:37.951Z,12.40
2022-09-13T03:44:02.624Z,12.40
2022-09-13T03:44:25.445Z,12.40
2022-09-13T03:44:48.411Z,12.40
2022-09-13T03:45:11.872Z,12.40
2022-09-13T03:45:35.739Z,12.40
2022-09-13T03:46:00.084Z,12.40
2022-09-13T03:46:26.124Z,12.40
2022-09-13T03:46:52.360Z,12.40
2022-09-13T03:47:15.377Z,12.30
2022-09-13T03:47:38.825Z,12.30
2022-09-13T03:48:01.725Z,12.30
2022-09-13T03:48:24.452Z,12.30
2022-09-13T03:48:47.699Z,12.30
2022-09-13T03:49:12.418Z,12.30
2022-09-13T03:49:35.161Z,12.30
2022-09-13T03:49:57.854Z,12.20
2022-09-13T03:50:21.574Z,12.20
2022-09-13T03:50:45.621Z,12.20
2022-09-13T03:51:08.351Z,12.20
2022-09-13T03:51:31.214Z,12.20
2022-09-13T03:51:53.962Z,12.20
2022-09-13T03:52:16.656Z,12.20
2022-09-13T03:52:42.248Z,12.20
2022-09-13T03:53:11.245Z,12.20
2022-09-13T03:53:36.000Z,12.20
2022-09-13T03:54:01.615Z,12.20
2022-09-13T03:54:26.256Z,12.20
2022-09-13T03:54:48.983Z,12.20
2022-09-13T03:55:11.875Z,12.20
2022-09-13T03:55:34.597Z,12.20
2022-09-13T03:55:57.558Z,12.10
2022-09-13T03:56:20.819Z,12.10
2022-09-13T03:56:44.043Z,12.10
2022-09-13T03:57:08.891Z,12.10
2022-09-13T03:57:31.736Z,12.10
2022-09-13T03:57:54.391Z,12.10
2022-09-13T03:58:19.215Z,12.10
2022-09-13T03:58:42.136Z,12.10
2022-09-13T03:59:04.903Z,12.00
2022-09-13T03:59:27.655Z,12.00
2022-09-13T03:59:51.668Z,12.00
2022-09-13T04:00:15.524Z,12.00
2022-09-13T04:00:40.873Z,12.00
2022-09-13T04:01:03.564Z,12.00
2022-09-13T04:01:26.351Z,12.00
2022-09-13T04:01:50.601Z,12.00
2022-09-13T04:02:13.604Z,12.00
2022-09-13T04:02:37.100Z,12.00
2022-09-13T04:02:59.824Z,11.90
2022-09-13T04:03:22.568Z,11.90
2022-09-13T04:03:45.296Z,11.90
2022-09-13T04:04:10.455Z,11.90
2022-09-13T04:04:33.473Z,11.90
2022-09-13T04:04:56.516Z,11.90
2022-09-13T04:05:19.168Z,11.90
2022-09-13T04:05:41.933Z,11.90
2022-09-13T04:06:05.028Z,11.90
2022-09-13T04:06:27.690Z,11.90
2022-09-13T04:06:50.677Z,11.90
2022-09-13T04:07:15.197Z,11.80
2022-09-13T04:07:37.838Z,11.80
2022-09-13T04:08:02.067Z,11.90
2022-09-13T04:08:24.803Z,11.90
2022-09-13T04:08:47.529Z,11.90
2022-09-13T04:09:10.271Z,11.80
2022-09-13T04:09:32.973Z,11.90
2022-09-13T04:09:56.313Z,11.90
2022-09-13T04:10:18.982Z,11.80
2022-09-13T04:10:41.752Z,11.80
2022-09-13T04:11:04.492Z,11.80
2022-09-13T04:11:27.198Z,11.80
2022-09-13T04:11:50.118Z,11.80
2022-09-13T04:12:14.378Z,11.80
2022-09-13T04:12:37.224Z,11.80
2022-09-13T04:13:00.654Z,11.80
2022-09-13T04:13:23.354Z,11.80
2022-09-13T04:13:46.039Z,11.80
2022-09-13T04:14:08.730Z,11.80
2022-09-13T04:14:34.701Z,11.80
2022-09-13T04:14:57.489Z,11.80
2022-09-13T04:15:20.160Z,11.80
2022-09-13T04:15:43.369Z,11.80
2022-09-13T04:16:07.326Z,11.80
2022-09-13T04:16:32.893Z,11.80
2022-09-13T04:16:57.272Z,11.90
2022-09-13T04:17:20.112Z,11.90
2022-09-13T04:17:42.868Z,11.90
2022-09-13T04:18:05.756Z,11.90
2022-09-13T04:18:28.437Z,12.00
2022-09-13T04:18:51.952Z,12.00
2022-09-13T04:19:14.652Z,12.00
2022-09-13T04:19:37.752Z,12.00
2022-09-13T04:20:00.443Z,12.00
2022-09-13T04:20:23.121Z,12.00
2022-09-13T04:20:52.996Z,11.90
2022-09-13T04:21:16.955Z,11.90
2022-09-13T04:21:39.671Z,11.90
2022-09-13T04:22:02.503Z,12.00
2022-09-13T04:22:25.111Z,12.00
2022-09-13T04:22:51.965Z,11.90
2022-09-13T04:23:14.661Z,11.90
2022-09-13T04:23:37.461Z,12.00
2022-09-13T04:24:00.507Z,11.90
2022-09-13T04:24:26.095Z,11.90
2022-09-13T04:24:48.787Z,12.00
2022-09-13T04:25:11.457Z,11.90
2022-09-13T04:25:34.222Z,11.90
2022-09-13T04:26:01.756Z,11.90
2022-09-13T04:26:24.447Z,11.90
2022-09-13T04:26:50.399Z,11.90
2022-09-13T04:27:13.341Z,11.90
2022-09-13T04:27:36.166Z,11.90
2022-09-13T04:28:00.168Z,11.90
2022-09-13T04:28:26.072Z,11.90
2022-09-13T04:28:48.930Z,11.90
2022-09-13T04:29:11.956Z,11.90
2022-09-13T04:29:34.639Z,11.90
2022-09-13T04:29:57.534Z,11.90
2022-09-13T04:30:20.280Z,11.90
2022-09-13T04:30:44.380Z,11.90
2022-09-13T04:31:07.089Z,11.90
2022-09-13T04:31:29.819Z,11.90
2022-09-13T04:31:53.836Z,11.90
2022-09-13T04:32:18.119Z,11.90
2022-09-13T04:32:42.396Z,11.90
2022-09-13T04:33:05.109Z,11.90
2022-09-13T04:33:27.780Z,11.90
2022-09-13T04:33:53.042Z,12.00
2022-09-13T04:34:16.164Z,12.00
2022-09-13T04:34:38.894Z,12.00
2022-09-13T04:35:01.617Z,12.00
2022-09-13T04:35:24.359Z,12.00
2022-09-13T04:35:47.365Z,12.00
2022-09-13T04:36:10.387Z,12.00
2022-09-13T04:36:33.109Z,12.00
2022-09-13T04:36:55.809Z,11.90
2022-09-13T04:37:18.419Z,12.00
2022-09-13T04:37:41.326Z,12.00
2022-09-13T04:38:03.997Z,12.00
2022-09-13T04:38:26.758Z,12.00
2022-09-13T04:38:49.618Z,12.10
2022-09-13T04:39:14.304Z,12.10
2022-09-13T04:39:37.140Z,12.10
2022-09-13T04:40:02.357Z,12.10
2022-09-13T04:40:25.184Z,12.10
2022-09-13T04:40:53.967Z,12.10
2022-09-13T04:41:17.450Z,12.20
2022-09-13T04:41:40.459Z,12.20
2022-09-13T04:42:04.004Z,12.20
2022-09-13T04:42:26.791Z,12.20
2022-09-13T04:42:49.525Z,12.20
2022-09-13T04:43:12.194Z,12.20
2022-09-13T04:43:34.864Z,12.20
2022-09-13T04:43:57.840Z,12.20
2022-09-13T04:44:24.652Z,12.30
2022-09-13T04:44:50.177Z,12.20
2022-09-13T04:45:12.962Z,12.30
2022-09-13T04:45:38.159Z,12.20
2022-09-13T04:46:01.583Z,12.20
2022-09-13T04:46:24.584Z,12.20
2022-09-13T04:46:48.394Z,12.20
2022-09-13T04:47:11.066Z,12.20
2022-09-13T04:47:35.226Z,12.10
2022-09-13T04:47:57.921Z,12.10
2022-09-13T04:48:20.646Z,12.10
2022-09-13T04:48:43.422Z,12.10
2022-09-13T04:49:06.077Z,12.10
2022-09-13T04:49:28.801Z,12.20
2022-09-13T04:49:51.685Z,12.20
2022-09-13T04:50:14.581Z,12.20
2022-09-13T04:50:37.302Z,12.10
2022-09-13T04:51:04.839Z,12.20
2022-09-13T04:51:27.611Z,12.20
2022-09-13T04:51:52.817Z,12.20
2022-09-13T04:52:15.536Z,12.20
2022-09-13T04:52:38.284Z,12.30
2022-09-13T04:53:00.961Z,12.30
2022-09-13T04:53:23.692Z,12.30
2022-09-13T04:53:46.407Z,12.40
2022-09-13T04:54:14.925Z,12.50
2022-09-13T04:54:38.251Z,12.50
2022-09-13T04:55:03.601Z,12.60
2022-09-13T04:55:26.252Z,12.70
2022-09-13T04:55:49.001Z,12.80
2022-09-13T04:56:14.085Z,12.90
2022-09-13T04:56:36.911Z,12.90
2022-09-13T04:56:59.770Z,13.10
2022-09-13T04:57:23.051Z,13.10
2022-09-13T04:57:46.142Z,13.20
2022-09-13T04:58:09.119Z,13.30
2022-09-13T04:58:33.938Z,13.40
2022-09-13T04:58:56.706Z,13.50
2022-09-13T04:59:19.587Z,13.60
2022-09-13T04:59:42.328Z,13.70
2022-09-13T05:00:06.580Z,13.70
2022-09-13T05:00:29.281Z,13.80
2022-09-13T05:00:56.785Z,14.00
2022-09-13T05:01:19.827Z,14.00
2022-09-13T05:01:42.734Z,14.10
2022-09-13T05:02:05.689Z,14.20
2022-09-13T05:02:28.364Z,14.30
2022-09-13T05:02:55.226Z,14.40
2022-09-13T05:03:17.939Z,14.50
2022-09-13T05:03:40.666Z,14.60
2022-09-13T05:04:03.762Z,14.70
2022-09-13T05:04:26.531Z,14.70
2022-09-13T05:04:50.818Z,14.80
2022-09-13T05:05:13.601Z,14.90
2022-09-13T05:05:37.461Z,15.00
2022-09-13T05:06:04.021Z,15.10
2022-09-13T05:06:26.772Z,15.20
2022-09-13T05:06:49.466Z,15.30
2022-09-13T05:07:12.161Z,15.40
2022-09-13T05:07:34.801Z,15.50
2022-09-13T05:07:57.569Z,15.50
2022-09-13T05:08:20.316Z,15.70
2022-09-13T05:08:44.091Z,15.70
2022-09-13T05:09:06.861Z,15.80
2022-09-13T05:09:29.503Z,16.00
2022-09-13T05:09:52.161Z,16.00
2022-09-13T05:10:19.333Z,16.10
2022-09-13T05:10:42.801Z,16.20
2022-09-13T05:11:05.761Z,16.40
2022-09-13T05:11:28.891Z,16.40
2022-09-13T05:11:51.652Z,16.50
2022-09-13T05:12:14.351Z,16.60
2022-09-13T05:12:39.196Z,16.70
2022-09-13T05:13:01.841Z,16.70
2022-09-13T05:13:24.973Z,16.80
2022-09-13T05:13:53.161Z,16.90
2022-09-13T05:14:15.836Z,16.90
2022-09-13T05:14:38.569Z,17.00
2022-09-13T05:15:01.276Z,17.00
2022-09-13T05:15:23.982Z,17.00
2022-09-13T05:15:47.403Z,17.10
2022-09-13T05:16:10.206Z,17.10
2022-09-13T05:16:33.180Z,17.10
2022-09-13T05:16:55.840Z,17.20
2022-09-13T05:17:18.576Z,17.20
2022-09-13T05:17:41.281Z,17.20
2022-09-13T05:18:05.501Z,17.30
2022-09-13T05:18:32.344Z,17.30
2022-09-13T05:18:55.532Z,17.40
2022-09-13T05:19:18.372Z,17.50
2022-09-13T05:19:40.992Z,17.60
2022-09-13T05:20:05.197Z,17.60
2022-09-13T05:20:28.098Z,17.70
2022-09-13T05:20:50.758Z,17.80
2022-09-13T05:21:15.868Z,17.90
2022-09-13T05:21:38.618Z,17.90
2022-09-13T05:22:01.292Z,18.00
2022-09-13T05:22:26.467Z,18.00
2022-09-13T05:22:49.128Z,18.00
2022-09-13T05:23:11.872Z,18.10
2022-09-13T05:23:35.225Z,18.10
2022-09-13T05:23:58.227Z,18.10
2022-09-13T05:24:20.945Z,18.10
2022-09-13T05:24:43.675Z,18.10
2022-09-13T05:25:07.897Z,18.20
2022-09-13T05:25:30.704Z,18.20
2022-09-13T05:25:54.401Z,18.10
2022-09-13T05:26:17.598Z,18.10
2022-09-13T05:26:40.425Z,18.10
2022-09-13T05:27:03.175Z,18.30
2022-09-13T05:27:28.315Z,18.30